Time;durP1;ratioP1;P1;durP2;ratioP2;P2;SDS_P1;SDS_P2;PMS_P1;PMS_P2;Temp;Humidity;BMP_temperature;BMP_pressure;BME280_temperature;BME280_humidity;BME280_pressure;Samples;Min_cycle;Max_cycle;Signal;HPM_P1;HPM_P2
2023/07/11 00:07:04;;;;;;;1999.90;999.90;;;20.00;99.90;;;;;;6699551;88;20268;-78
2023/07/11 00:17:05;;;;;;;1999.90;999.90;;;19.80;99.90;;;;;;6699527;88;20219;-80
2023/07/11 00:27:06;;;;;;;1999.90;999.90;;;19.70;99.90;;;;;;6697215;88;20198;-78
2023/07/11 00:37:07;;;;;;;1999.90;999.90;;;19.60;99.90;;;;;;6696448;88;20315;-78
2023/07/11 00:47:08;;;;;;;1999.90;999.90;;;19.50;99.90;;;;;;6700192;88;20202;-78
2023/07/11 00:57:09;;;;;;;1999.90;999.90;;;19.30;99.90;;;;;;6701630;88;20190;-79
2023/07/11 01:07:13;;;;;;;1999.90;999.90;;;19.30;99.90;;;;;;6694123;88;20229;-78
2023/07/11 01:17:31;;;;;;;1999.90;999.90;;;19.00;99.90;;;;;;6698511;88;20212;-78
2023/07/11 01:27:32;;;;;;;1999.90;999.90;;;18.80;99.90;;;;;;6698580;88;20182;-79
2023/07/11 01:37:33;;;;;;;1999.90;999.90;;;18.90;99.90;;;;;;6700402;88;20186;-78
2023/07/11 01:47:33;;;;;;;1999.90;999.90;;;18.80;99.90;;;;;;6698862;88;20652;-79
2023/07/11 01:57:34;;;;;;;1999.90;999.90;;;18.70;99.90;;;;;;6693517;88;20268;-79
2023/07/11 02:07:34;;;;;;;1999.90;999.90;;;18.60;99.90;;;;;;6694391;88;20179;-78
2023/07/11 02:17:35;;;;;;;1999.90;999.90;;;18.80;99.90;;;;;;6694235;88;20217;-78
2023/07/11 02:27:36;;;;;;;1999.90;999.90;;;18.80;99.90;;;;;;6697756;88;20203;-79
2023/07/11 02:37:36;;;;;;;1999.90;999.90;;;18.80;99.90;;;;;;6686772;88;20223;-78
2023/07/11 02:47:37;;;;;;;1999.90;999.90;;;18.80;99.90;;;;;;6701372;88;20330;-78
2023/07/11 02:57:41;;;;;;;1999.90;999.90;;;18.70;99.90;;;;;;6697926;88;20186;-79
2023/07/11 03:07:41;;;;;;;1999.90;999.90;;;18.70;99.90;;;;;;6697761;88;20176;-79
2023/07/11 03:17:42;;;;;;;1999.90;999.90;;;18.70;99.90;;;;;;6693289;88;20257;-79
2023/07/11 03:27:43;;;;;;;1999.90;999.90;;;18.60;99.90;;;;;;6712471;88;20201;-80
2023/07/11 03:37:43;;;;;;;1999.90;999.90;;;18.60;99.90;;;;;;6703300;88;20199;-79
2023/07/11 03:47:43;;;;;;;1999.90;999.90;;;18.70;99.90;;;;;;6696406;88;20174;-79
2023/07/11 03:57:44;;;;;;;1999.90;999.90;;;18.70;99.90;;;;;;6710756;88;20248;-78
2023/07/11 04:07:44;;;;;;;1999.90;999.90;;;18.50;99.90;;;;;;6701599;88;20330;-78
2023/07/11 04:17:45;;;;;;;1999.90;999.90;;;18.30;99.90;;;;;;6699651;88;20203;-79
2023/07/11 04:27:46;;;;;;;1999.90;999.90;;;18.40;99.90;;;;;;6706339;77;20202;-80
2023/07/11 04:37:46;;;;;;;1999.90;999.90;;;18.60;99.90;;;;;;6710118;88;20216;-78
2023/07/11 04:47:47;;;;;;;1999.90;999.90;;;18.80;99.90;;;;;;6704874;88;20596;-80
2023/07/11 04:57:47;;;;;;;1999.90;999.90;;;18.90;99.90;;;;;;6707566;88;20254;-78
2023/07/11 05:07:48;;;;;;;1999.90;999.90;;;19.10;99.90;;;;;;6708011;88;20718;-78
2023/07/11 05:17:48;;;;;;;1999.90;999.90;;;19.30;99.90;;;;;;6706694;88;20232;-77
2023/07/11 05:27:49;;;;;;;1999.90;999.90;;;19.50;99.90;;;;;;6705304;88;20232;-77
2023/07/11 05:37:49;;;;;;;1999.90;999.90;;;19.70;99.90;;;;;;6704851;88;20207;-78
2023/07/11 05:47:50;;;;;;;1999.90;999.90;;;19.90;99.90;;;;;;6702842;88;20175;-78
2023/07/11 05:57:51;;;;;;;1999.90;999.90;;;20.20;99.90;;;;;;6705152;88;20212;-77
2023/07/11 06:07:51;;;;;;;1999.90;999.90;;;20.60;99.90;;;;;;6696114;88;20182;-77
2023/07/11 06:17:52;;;;;;;1999.90;999.90;;;21.20;99.90;;;;;;6703730;88;20286;-78
2023/07/11 06:27:52;;;;;;;1999.90;999.90;;;21.90;99.90;;;;;;6708191;88;20214;-78
2023/07/11 06:37:53;;;;;;;1999.90;999.90;;;22.30;99.90;;;;;;6697419;88;20304;-77
2023/07/11 06:47:54;;;;;;;1999.90;999.90;;;22.60;99.90;;;;;;6701923;88;20252;-77
2023/07/11 06:57:54;;;;;;;1999.90;999.90;;;23.20;99.90;;;;;;6699613;88;20638;-78
2023/07/11 07:07:55;;;;;;;1999.90;999.90;;;23.50;99.90;;;;;;6704582;88;20197;-78
2023/07/11 07:17:55;;;;;;;1999.90;999.90;;;23.90;99.90;;;;;;6702200;88;20650;-78
2023/07/11 07:27:57;;;;;;;1999.90;999.90;;;24.50;99.90;;;;;;6699410;88;20676;-78
2023/07/11 07:37:58;;;;;;;1999.90;999.90;;;25.20;99.90;;;;;;6701966;88;20210;-77
2023/07/11 07:47:58;;;;;;;1999.90;999.90;;;25.60;99.90;;;;;;6704438;88;20243;-78
2023/07/11 07:57:59;;;;;;;1999.90;999.90;;;26.00;99.90;;;;;;6692452;88;20249;-78
2023/07/11 08:07:59;;;;;;;1999.90;999.90;;;26.30;99.90;;;;;;6706314;88;20715;-77
2023/07/11 08:18:00;;;;;;;1999.90;999.90;;;27.00;99.90;;;;;;6694762;88;20596;-76
2023/07/11 08:28:00;;;;;;;1999.90;999.90;;;27.50;99.90;;;;;;6698524;88;20320;-77
2023/07/11 08:38:02;;;;;;;1999.90;999.90;;;28.20;99.80;;;;;;6698977;88;20189;-77
2023/07/11 08:48:24;;;;;;;1999.90;999.90;;;28.60;98.60;;;;;;6697703;88;20218;-77
2023/07/11 08:58:32;;;;;;;1999.90;999.90;;;29.40;97.60;;;;;;6694532;88;20175;-80
2023/07/11 09:08:37;;;;;;;1999.90;999.90;;;30.60;94.60;;;;;;6700822;88;20319;-79
2023/07/11 09:18:52;;;;;;;1999.90;999.90;;;30.30;94.90;;;;;;6697880;88;20256;-79
2023/07/11 09:29:04;;;;;;;1999.90;999.90;;;30.60;94.70;;;;;;6703737;88;20185;-79
2023/07/11 09:39:29;;;;;;;1999.90;999.90;;;31.60;92.10;;;;;;6708379;88;20730;-78
2023/07/11 09:49:30;;;;;;;1999.90;999.90;;;32.10;87.10;;;;;;6698094;88;20669;-79
2023/07/11 09:59:31;;;;;;;1999.90;999.90;;;33.00;84.20;;;;;;6701721;88;20265;-79
2023/07/11 10:09:36;;;;;;;1999.90;999.90;;;32.50;84.30;;;;;;6705212;88;20197;-78
2023/07/11 10:19:37;;;;;;;1999.90;999.90;;;32.80;80.70;;;;;;6711801;88;20659;-78
2023/07/11 10:29:41;;;;;;;;;;;33.00;78.20;;;;;;6730803;77;20215;-78
2023/07/11 10:39:48;;;;;;;1999.90;999.90;;;32.50;79.20;;;;;;6728172;88;20067;-77
2023/07/11 10:49:52;;;;;;;1999.90;999.90;;;33.20;78.00;;;;;;6716080;88;20182;-78
2023/07/11 10:59:53;;;;;;;1999.90;999.90;;;34.50;73.50;;;;;;6722457;88;20605;-78
2023/07/11 11:10:00;;;;;;;1999.90;999.90;;;34.20;71.60;;;;;;6721340;88;20226;-79
2023/07/11 11:20:43;;;;;;;1999.90;999.90;;;34.90;70.30;;;;;;6725082;88;20195;-78
2023/07/11 11:30:59;;;;;;;1999.90;999.90;;;34.80;71.90;;;;;;6701343;88;20268;-79
2023/07/11 11:41:02;;;;;;;1999.90;999.90;;;35.80;69.50;;;;;;6721703;88;20240;-79
2023/07/11 11:51:14;;;;;;;1999.90;999.90;;;35.40;69.60;;;;;;6724438;88;20245;-78
2023/07/11 12:01:33;;;;;;;1999.90;999.90;;;35.90;69.00;;;;;;6732348;88;20230;-78
2023/07/11 12:11:33;;;;;;;1999.90;999.90;;;36.40;66.70;;;;;;6727447;88;20194;-78
2023/07/11 12:21:42;;;;;;;1999.90;999.90;;;36.80;63.50;;;;;;6730000;88;20189;-78
2023/07/11 12:31:43;;;;;;;1999.90;999.90;;;35.20;64.70;;;;;;6727704;88;20213;-79
2023/07/11 12:41:48;;;;;;;1999.90;999.90;;;36.10;61.00;;;;;;6730165;88;20193;-78
2023/07/11 12:51:48;;;;;;;1999.90;999.90;;;35.30;64.70;;;;;;6728535;88;20189;-78
2023/07/11 13:01:50;;;;;;;1999.90;999.90;;;37.20;61.80;;;;;;6729778;88;20193;-78
2023/07/11 13:11:52;;;;;;;1999.90;999.90;;;35.70;62.80;;;;;;6725449;88;20191;-78
2023/07/11 13:21:52;;;;;;;1999.90;999.90;;;36.80;62.20;;;;;;6731828;88;20186;-78
2023/07/11 13:32:02;;;;;;;1999.90;999.90;;;37.60;61.00;;;;;;6726659;88;20758;-78
2023/07/11 13:42:10;;;;;;;1999.90;999.90;;;37.30;60.20;;;;;;6725669;88;20248;-78
2023/07/11 13:52:24;;;;;;;1999.90;999.90;;;36.50;59.90;;;;;;6725668;88;20276;-78
2023/07/11 14:02:31;;;;;;;1999.90;999.90;;;35.80;61.20;;;;;;6731191;88;20616;-77
2023/07/11 14:12:31;;;;;;;1999.90;999.90;;;36.80;60.30;;;;;;6721131;88;20232;-78
2023/07/11 14:22:32;;;;;;;1999.90;999.90;;;35.90;62.30;;;;;;6727646;88;20219;-78
2023/07/11 14:32:33;;;;;;;1999.90;999.90;;;35.40;65.30;;;;;;6726797;88;20619;-77
2023/07/11 14:42:34;;;;;;;1999.90;999.90;;;36.30;60.90;;;;;;6716112;88;20218;-77
2023/07/11 14:52:34;;;;;;;1999.90;999.90;;;36.60;61.90;;;;;;6722178;88;20181;-77
2023/07/11 15:02:36;;;;;;;1999.90;999.90;;;36.30;59.90;;;;;;6723275;88;20266;-77
2023/07/11 15:12:37;;;;;;;1999.90;999.90;;;35.20;79.70;;;;;;6721330;88;20204;-77
2023/07/11 15:22:41;;;;;;;1999.90;999.90;;;32.90;80.60;;;;;;6718860;88;20304;-76
2023/07/11 15:32:43;;;;;;;1999.90;999.90;;;34.00;75.90;;;;;;6718505;88;20749;-77
2023/07/11 15:42:44;;;;;;;1999.90;999.90;;;34.50;74.80;;;;;;6722815;88;20192;-77
2023/07/11 15:52:45;;;;;;;1999.90;999.90;;;34.90;73.30;;;;;;6720399;88;20233;-77
2023/07/11 16:02:45;;;;;;;1999.90;999.90;;;35.40;71.80;;;;;;6722161;88;20639;-78
2023/07/11 16:12:46;;;;;;;1999.90;999.90;;;35.20;69.60;;;;;;6723286;88;20189;-77
2023/07/11 16:22:47;;;;;;;1999.90;999.90;;;34.70;70.40;;;;;;6718117;88;20487;-76
2023/07/11 16:32:49;;;;;;;1999.90;999.90;;;34.80;69.40;;;;;;6712847;77;20234;-75
2023/07/11 16:42:54;;;;;;;1999.90;999.90;;;33.70;70.90;;;;;;6703039;88;20642;-76
2023/07/11 16:52:57;;;;;;;1999.90;999.90;;;33.40;71.80;;;;;;6691068;88;20380;-74
2023/07/11 17:02:58;;;;;;;1999.90;999.90;;;32.70;71.80;;;;;;6692831;88;20363;-74
2023/07/11 17:12:59;;;;;;;1999.90;999.90;;;28.20;95.00;;;;;;6699571;88;20761;-76
2023/07/11 17:22:59;;;;;;;1999.90;999.90;;;27.00;99.90;;;;;;6693398;88;20619;-76
2023/07/11 17:33:00;;;;;;;1999.90;999.90;;;25.50;99.90;;;;;;6690039;88;20657;-77
2023/07/11 17:43:00;;;;;;;1999.90;999.90;;;26.20;99.90;;;;;;6688475;88;20380;-77
2023/07/11 17:53:01;;;;;;;1999.90;999.90;;;26.20;99.90;;;;;;6690670;88;20200;-75
2023/07/11 18:03:01;;;;;;;1999.90;999.90;;;26.20;99.90;;;;;;6687516;88;20679;-76
2023/07/11 18:13:04;;;;;;;1999.90;999.90;;;26.50;99.90;;;;;;6685780;88;20618;-75
2023/07/11 18:23:05;;;;;;;1999.90;999.90;;;26.20;99.90;;;;;;6700549;88;20179;-76
2023/07/11 18:33:06;;;;;;;1999.90;999.90;;;26.30;99.90;;;;;;6700401;88;20674;-75
2023/07/11 18:43:10;;;;;;;1999.90;999.90;;;27.20;99.90;;;;;;6687778;88;20203;-75
2023/07/11 18:53:10;;;;;;;1999.90;999.90;;;27.30;99.90;;;;;;6689754;88;20803;-75
2023/07/11 19:03:11;;;;;;;1999.90;999.90;;;27.30;99.90;;;;;;6692026;88;20269;-76
2023/07/11 19:13:12;;;;;;;1999.90;999.90;;;27.10;99.90;;;;;;6689022;88;20224;-76
2023/07/11 19:23:21;;;;;;;1999.90;999.90;;;27.10;99.90;;;;;;6689987;88;20222;-76
2023/07/11 19:33:22;;;;;;;1999.90;999.90;;;27.20;99.90;;;;;;6686853;88;20345;-75
2023/07/11 19:43:23;;;;;;;1999.90;999.90;;;27.10;99.90;;;;;;6687733;88;20708;-75
2023/07/11 19:53:24;;;;;;;1999.90;999.90;;;26.80;99.90;;;;;;6690354;88;20410;-75
2023/07/11 20:03:30;;;;;;;1999.90;999.90;;;26.40;99.90;;;;;;6686481;88;20258;-75
2023/07/11 20:13:30;;;;;;;1999.90;999.90;;;26.00;99.90;;;;;;6691279;88;20208;-76
2023/07/11 20:23:31;;;;;;;1999.90;999.90;;;25.90;99.90;;;;;;6697918;88;20653;-76
2023/07/11 20:33:32;;;;;;;1999.90;999.90;;;25.60;99.90;;;;;;6692230;88;20266;-75
2023/07/11 20:43:32;;;;;;;1999.90;999.90;;;25.20;99.90;;;;;;6687911;88;20190;-76
2023/07/11 20:53:33;;;;;;;1999.90;999.90;;;25.20;99.90;;;;;;6692036;88;20791;-76
2023/07/11 21:03:36;;;;;;;1999.90;999.90;;;25.00;99.90;;;;;;6689993;88;20430;-76
2023/07/11 21:13:36;;;;;;;;;;;25.00;99.90;;;;;;6688945;88;20214;-77
2023/07/11 21:23:37;;;;;;;1999.90;999.90;;;24.80;99.90;;;;;;6691013;88;20091;-76
2023/07/11 21:33:38;;;;;;;1999.90;999.90;;;24.80;99.90;;;;;;6693088;88;20222;-75
2023/07/11 21:43:39;;;;;;;1999.90;999.90;;;24.80;99.90;;;;;;6694043;88;20318;-77
2023/07/11 21:53:40;;;;;;;1999.90;999.90;;;24.90;99.90;;;;;;6697359;88;20360;-76
2023/07/11 22:03:41;;;;;;;1999.90;999.90;;;24.70;99.90;;;;;;6693662;88;20198;-76
2023/07/11 22:13:42;;;;;;;1999.90;999.90;;;24.70;99.90;;;;;;6698906;88;20669;-76
2023/07/11 22:23:43;;;;;;;1999.90;999.90;;;25.10;99.90;;;;;;6690459;88;20283;-76
2023/07/11 22:33:44;;;;;;;1999.90;999.90;;;25.30;99.90;;;;;;6721736;77;20210;-78
2023/07/11 22:43:44;;;;;;;1999.90;999.90;;;25.50;99.90;;;;;;6725113;88;20210;-76
2023/07/11 22:53:45;;;;;;;1999.90;999.90;;;25.60;99.90;;;;;;6711438;88;20613;-78
2023/07/11 23:03:46;;;;;;;1999.90;999.90;;;25.20;99.90;;;;;;6714442;88;20232;-77
2023/07/11 23:13:47;;;;;;;1999.90;999.90;;;24.90;99.90;;;;;;6714692;88;20258;-77
2023/07/11 23:23:48;;;;;;;1999.90;999.90;;;25.00;99.90;;;;;;6714571;88;20198;-78
2023/07/11 23:33:48;;;;;;;1999.90;999.90;;;24.80;99.90;;;;;;6714790;88;20235;-77
2023/07/11 23:43:51;;;;;;;1999.90;999.90;;;24.30;99.90;;;;;;6715157;88;20698;-76
2023/07/11 23:53:52;;;;;;;1999.90;999.90;;;23.70;99.90;;;;;;6716813;88;20185;-77
